createdAt,value
2022-08-11T00:00:52.225Z,18.70
2022-08-11T00:02:54.898Z,18.70
2022-08-11T00:05:01.253Z,18.70
2022-08-11T00:07:05.046Z,18.70
2022-08-11T00:09:18.500Z,18.60
2022-08-11T00:11:21.220Z,18.70
2022-08-11T00:13:32.188Z,18.60
2022-08-11T00:15:44.338Z,18.60
2022-08-11T00:17:47.558Z,18.50
2022-08-11T00:20:15.133Z,18.40
2022-08-11T00:22:21.055Z,18.40
2022-08-11T00:24:24.479Z,18.40
2022-08-11T00:26:28.149Z,18.40
2022-08-11T00:28:32.253Z,18.40
2022-08-11T00:30:40.919Z,18.40
2022-08-11T00:32:45.063Z,18.40
2022-08-11T00:34:48.145Z,18.30
2022-08-11T00:37:10.349Z,18.30
2022-08-11T00:39:13.801Z,18.30
2022-08-11T00:41:18.520Z,18.30
2022-08-11T00:43:29.835Z,18.30
2022-08-11T00:45:42.327Z,18.20
2022-08-11T00:47:55.762Z,18.10
2022-08-11T00:50:36.228Z,18.00
2022-08-11T00:53:08.124Z,18.00
2022-08-11T00:55:30.838Z,18.00
2022-08-11T00:57:51.293Z,18.00
2022-08-11T01:00:13.349Z,17.90
2022-08-11T01:02:42.044Z,17.90
2022-08-11T01:04:46.558Z,17.90
2022-08-11T01:07:12.664Z,17.80
2022-08-11T01:09:32.955Z,17.70
2022-08-11T01:12:03.970Z,17.70
2022-08-11T01:14:34.510Z,17.70
2022-08-11T01:16:51.822Z,17.70
2022-08-11T01:19:14.212Z,17.60
2022-08-11T01:21:53.816Z,17.60
2022-08-11T01:24:27.086Z,17.50
2022-08-11T01:26:37.563Z,17.50
2022-08-11T01:29:15.845Z,17.40
2022-08-11T01:31:42.204Z,17.40
2022-08-11T01:34:02.555Z,17.50
2022-08-11T01:36:32.084Z,17.50
2022-08-11T01:38:58.092Z,17.40
2022-08-11T01:41:47.617Z,17.30
2022-08-11T01:44:40.232Z,17.40
2022-08-11T01:46:57.714Z,17.40
2022-08-11T01:50:01.052Z,17.30
2022-08-11T01:52:15.155Z,17.10
2022-08-11T01:54:27.277Z,17.10
2022-08-11T01:56:50.288Z,17.10
2022-08-11T01:59:13.381Z,17.10
2022-08-11T02:01:37.359Z,17.10
2022-08-11T02:04:03.276Z,17.10
2022-08-11T02:06:30.874Z,17.10
2022-08-11T02:08:52.024Z,17.10
2022-08-11T02:11:31.085Z,17.00
2022-08-11T02:13:52.185Z,17.00
2022-08-11T02:16:22.826Z,16.90
2022-08-11T02:18:52.750Z,16.80
2022-08-11T02:21:24.768Z,17.00
2022-08-11T02:23:59.651Z,16.90
2022-08-11T02:26:33.255Z,16.80
2022-08-11T02:28:46.597Z,16.70
2022-08-11T02:32:15.860Z,16.70
2022-08-11T02:35:00.669Z,16.70
2022-08-11T02:37:31.781Z,16.60
2022-08-11T02:39:47.720Z,16.50
2022-08-11T02:42:32.458Z,16.60
2022-08-11T02:45:11.882Z,16.50
2022-08-11T02:47:38.290Z,16.50
2022-08-11T02:50:02.641Z,16.50
2022-08-11T02:52:45.372Z,16.50
2022-08-11T02:55:08.863Z,16.50
2022-08-11T02:57:22.574Z,16.50
2022-08-11T02:59:46.348Z,16.30
2022-08-11T03:02:32.202Z,16.30
2022-08-11T03:04:49.914Z,16.30
2022-08-11T03:07:46.801Z,16.20
2022-08-11T03:10:00.311Z,16.20
2022-08-11T03:12:42.651Z,16.30
2022-08-11T03:15:20.388Z,16.30
2022-08-11T03:17:32.483Z,16.30
2022-08-11T03:19:37.234Z,16.30
2022-08-11T03:22:02.796Z,16.20
2022-08-11T03:24:33.638Z,16.20
2022-08-11T03:27:03.128Z,16.20
2022-08-11T03:29:24.938Z,16.20
2022-08-11T03:31:30.084Z,16.10
2022-08-11T03:34:05.530Z,16.20
2022-08-11T03:36:25.752Z,16.10
2022-08-11T03:38:34.190Z,16.00
2022-08-11T03:42:01.203Z,16.00
2022-08-11T03:43:58.454Z,15.90
2022-08-11T03:46:12.401Z,15.90
2022-08-11T03:48:22.994Z,15.90
2022-08-11T03:50:51.899Z,15.90
2022-08-11T03:53:14.985Z,15.90
2022-08-11T03:55:41.779Z,15.90
2022-08-11T03:58:09.408Z,15.90
2022-08-11T04:00:43.905Z,15.90
2022-08-11T04:03:44.243Z,15.90
2022-08-11T04:05:45.954Z,15.90
2022-08-11T04:08:04.143Z,15.90
2022-08-11T04:10:17.959Z,15.90
2022-08-11T04:12:47.874Z,15.90
2022-08-11T04:15:27.491Z,15.90
2022-08-11T04:17:35.572Z,15.90
2022-08-11T04:20:09.118Z,15.80
2022-08-11T04:22:44.077Z,15.90
2022-08-11T04:25:18.036Z,15.90
2022-08-11T04:27:41.713Z,15.80
2022-08-11T04:30:09.014Z,15.90
2022-08-11T04:32:28.559Z,15.90
2022-08-11T04:34:58.160Z,15.90
2022-08-11T04:37:27.363Z,15.90
2022-08-11T04:39:54.523Z,15.80
2022-08-11T04:43:09.913Z,15.80
2022-08-11T04:45:20.870Z,15.80
2022-08-11T04:48:21.977Z,15.80
2022-08-11T04:51:16.972Z,15.80
2022-08-11T04:53:47.651Z,15.80
2022-08-11T04:56:37.056Z,15.80
2022-08-11T04:59:03.561Z,15.80
2022-08-11T05:01:43.120Z,15.90
2022-08-11T05:04:51.846Z,16.00
2022-08-11T05:06:53.531Z,16.00
2022-08-11T05:09:16.235Z,16.00
2022-08-11T05:11:24.069Z,15.90
2022-08-11T05:13:52.911Z,15.90
2022-08-11T05:16:29.023Z,15.90
2022-08-11T05:18:52.003Z,16.00
2022-08-11T05:21:16.228Z,16.00
2022-08-11T05:23:39.964Z,16.00
2022-08-11T05:26:42.906Z,15.90
2022-08-11T05:29:19.857Z,16.00
2022-08-11T05:31:51.204Z,16.00
2022-08-11T05:34:18.520Z,16.10
2022-08-11T05:36:45.041Z,16.20
2022-08-11T05:39:18.077Z,16.30
2022-08-11T05:41:41.701Z,16.30
2022-08-11T05:44:21.542Z,16.40
2022-08-11T05:46:45.272Z,16.40
2022-08-11T05:49:06.529Z,16.50
2022-08-11T05:51:30.499Z,16.50
2022-08-11T05:53:52.183Z,16.50
2022-08-11T05:56:12.926Z,16.60
2022-08-11T05:58:15.420Z,16.70
2022-08-11T06:00:18.690Z,16.70
2022-08-11T06:02:20.714Z,16.70
2022-08-11T06:04:25.387Z,16.80
2022-08-11T06:06:29.148Z,16.90
2022-08-11T06:08:37.913Z,16.90
2022-08-11T06:10:48.747Z,17.00
2022-08-11T06:13:07.713Z,17.10
2022-08-11T06:15:17.510Z,17.20
2022-08-11T06:17:25.157Z,17.20
2022-08-11T06:19:40.206Z,17.30
2022-08-11T06:21:47.037Z,17.40
2022-08-11T06:23:50.340Z,17.40
2022-08-11T06:25:59.097Z,17.50
2022-08-11T06:28:11.004Z,17.60
2022-08-11T06:30:13.995Z,17.70
2022-08-11T06:32:16.579Z,17.70
2022-08-11T06:34:52.908Z,17.80
2022-08-11T06:37:20.343Z,17.90
2022-08-11T06:40:02.348Z,18.00
2022-08-11T06:42:09.574Z,18.00
2022-08-11T06:44:14.011Z,18.10
2022-08-11T06:46:28.386Z,18.20
2022-08-11T06:48:32.836Z,18.20
2022-08-11T06:50:53.884Z,18.30
2022-08-11T06:52:56.155Z,18.40
2022-08-11T06:55:06.572Z,18.50
2022-08-11T06:57:33.030Z,18.70
2022-08-11T06:59:55.654Z,19.00
2022-08-11T07:02:06.892Z,19.10
2022-08-11T07:04:11.111Z,19.20
2022-08-11T07:06:50.514Z,19.30
2022-08-11T07:09:35.296Z,19.50
2022-08-11T07:12:11.082Z,19.90
2022-08-11T07:14:38.608Z,20.00
2022-08-11T07:16:44.495Z,20.10
2022-08-11T07:19:05.981Z,20.30
2022-08-11T07:22:01.757Z,20.40
2022-08-11T07:24:34.492Z,20.50
2022-08-11T07:27:14.220Z,20.60
2022-08-11T07:29:16.625Z,20.80
2022-08-11T07:31:24.708Z,21.10
2022-08-11T07:34:08.308Z,21.10
2022-08-11T07:36:00.937Z,21.30
2022-08-11T07:38:07.311Z,21.40
2022-08-11T07:40:10.954Z,21.40
2022-08-11T07:42:15.563Z,21.50
2022-08-11T07:44:17.905Z,21.50
2022-08-11T07:46:40.146Z,21.50
2022-08-11T07:49:00.902Z,21.70
2022-08-11T07:51:22.052Z,21.80
2022-08-11T07:53:24.164Z,21.80
2022-08-11T07:55:50.858Z,21.90
2022-08-11T07:58:16.988Z,22.10
2022-08-11T08:00:40.500Z,22.20
2022-08-11T08:03:02.889Z,22.50
2022-08-11T08:05:25.763Z,22.20
2022-08-11T08:07:46.156Z,22.40
2022-08-11T08:10:10.049Z,22.40
2022-08-11T08:12:35.002Z,22.50
2022-08-11T08:14:56.212Z,22.60
2022-08-11T08:17:16.976Z,22.70
2022-08-11T08:19:21.352Z,22.90
2022-08-11T08:21:23.167Z,23.00
2022-08-11T08:23:34.061Z,23.10
2022-08-11T08:25:40.132Z,23.10
2022-08-11T08:27:43.639Z,23.20
2022-08-11T08:30:04.755Z,23.30
2022-08-11T08:32:08.858Z,23.50
2022-08-11T08:34:11.769Z,23.40
2022-08-11T08:36:16.895Z,23.40
2022-08-11T08:38:19.898Z,23.40
2022-08-11T08:40:21.857Z,23.40
2022-08-11T08:42:28.224Z,23.60
2022-08-11T08:44:39.207Z,23.70
2022-08-11T08:46:50.536Z,23.60
2022-08-11T08:48:53.886Z,23.60
2022-08-11T08:51:22.824Z,23.60
2022-08-11T08:53:32.829Z,24.10
2022-08-11T08:55:34.876Z,24.30
2022-08-11T08:57:40.136Z,24.30
2022-08-11T08:59:48.878Z,24.20
2022-08-11T09:02:03.383Z,24.40
2022-08-11T09:04:13.542Z,24.50
2022-08-11T09:06:19.488Z,24.40
2022-08-11T09:08:25.089Z,24.30
2022-08-11T09:10:31.041Z,24.30
2022-08-11T09:12:35.730Z,24.50
2022-08-11T09:15:01.059Z,24.50
2022-08-11T09:17:02.938Z,24.70
2022-08-11T09:19:05.193Z,24.80
2022-08-11T09:21:10.066Z,24.90
2022-08-11T09:26:18.395Z,25.20
2022-08-11T09:28:22.612Z,25.20
2022-08-11T09:30:25.928Z,25.10
2022-08-11T09:32:29.399Z,25.00
2022-08-11T09:34:31.467Z,25.20
2022-08-11T09:36:52.071Z,25.40
2022-08-11T09:39:13.171Z,25.40
2022-08-11T09:44:04.647Z,25.60
2022-08-11T09:45:16.295Z,25.60
2022-08-11T09:46:08.776Z,25.70
2022-08-11T09:48:17.729Z,25.60
2022-08-11T09:50:19.838Z,25.80
2022-08-11T09:52:26.219Z,25.70
2022-08-11T09:54:28.201Z,25.80
2022-08-11T09:56:49.172Z,26.00
2022-08-11T09:58:51.097Z,26.30
2022-08-11T10:00:57.975Z,26.40
2022-08-11T10:03:02.669Z,26.20
2022-08-11T10:05:23.715Z,26.30
2022-08-11T10:07:26.050Z,26.50
2022-08-11T10:09:36.377Z,26.50
2022-08-11T10:11:41.778Z,26.50
2022-08-11T10:14:32.633Z,26.80
2022-08-11T10:16:34.645Z,26.90
2022-08-11T10:18:49.401Z,26.70
2022-08-11T10:21:02.161Z,26.60
2022-08-11T10:23:23.867Z,26.90
2022-08-11T10:25:44.507Z,27.10
2022-08-11T10:28:33.057Z,27.50
2022-08-11T10:30:30.215Z,27.60
2022-08-11T10:32:58.328Z,27.80
2022-08-11T10:35:02.793Z,28.40
2022-08-11T10:37:07.093Z,28.50
2022-08-11T10:39:22.009Z,28.90
2022-08-11T10:42:06.882Z,29.40
2022-08-11T10:44:10.528Z,29.50
2022-08-11T10:46:32.301Z,29.60
2022-08-11T10:48:38.110Z,29.70
2022-08-11T10:51:03.906Z,29.60
2022-08-11T10:53:27.156Z,29.60
2022-08-11T10:55:48.263Z,30.10
2022-08-11T10:58:08.595Z,30.20
2022-08-11T11:00:15.077Z,30.30
2022-08-11T11:02:18.896Z,30.50
2022-08-11T11:04:28.352Z,30.60
2022-08-11T11:06:48.622Z,30.40
2022-08-11T11:08:57.505Z,30.70
2022-08-11T11:11:04.511Z,30.90
2022-08-11T11:13:25.234Z,31.20
2022-08-11T11:15:48.650Z,31.60
2022-08-11T11:18:11.759Z,31.60
2022-08-11T11:20:36.418Z,31.90
2022-08-11T11:22:48.170Z,32.20
2022-08-11T11:25:11.229Z,32.10
2022-08-11T11:27:48.900Z,32.20
2022-08-11T11:30:11.830Z,32.60
2022-08-11T11:32:50.520Z,32.80
2022-08-11T11:35:26.887Z,32.60
2022-08-11T11:37:33.727Z,32.70
2022-08-11T11:39:39.837Z,33.30
2022-08-11T11:41:45.298Z,33.40
2022-08-11T11:43:48.335Z,33.80
2022-08-11T11:45:50.305Z,33.60
2022-08-11T11:47:54.467Z,33.30
2022-08-11T11:49:57.016Z,33.60
2022-08-11T11:52:01.653Z,34.30
2022-08-11T11:54:05.021Z,34.80
2022-08-11T11:56:07.587Z,34.90
2022-08-11T11:58:29.382Z,34.70
2022-08-11T12:00:52.041Z,34.80
2022-08-11T12:02:58.053Z,34.90
2022-08-11T12:05:02.061Z,35.10
2022-08-11T12:07:24.111Z,35.90
2022-08-11T12:09:26.220Z,36.40
2022-08-11T12:11:48.605Z,36.00
2022-08-11T12:13:53.126Z,35.90
2022-08-11T12:16:04.434Z,36.40
2022-08-11T12:18:18.614Z,37.50
2022-08-11T12:20:30.937Z,36.90
2022-08-11T12:22:56.484Z,37.40
2022-08-11T12:25:17.006Z,37.80
2022-08-11T12:27:24.976Z,37.50
2022-08-11T12:29:32.254Z,37.50
2022-08-11T12:31:38.504Z,38.60
2022-08-11T12:33:41.712Z,38.90
2022-08-11T12:36:00.695Z,38.50
2022-08-11T12:38:18.324Z,39.10
2022-08-11T12:41:15.976Z,38.90
2022-08-11T12:43:37.284Z,37.10
2022-08-11T12:45:42.331Z,36.60
2022-08-11T12:48:58.640Z,38.70
2022-08-11T12:50:53.513Z,39.70
2022-08-11T12:52:57.184Z,39.50
2022-08-11T12:55:12.978Z,39.60
2022-08-11T12:57:38.339Z,39.80
2022-08-11T13:00:01.748Z,39.70
2022-08-11T13:02:22.939Z,40.10
2022-08-11T13:04:46.590Z,40.10
2022-08-11T13:06:52.824Z,39.00
2022-08-11T13:09:01.109Z,39.50
2022-08-11T13:11:23.040Z,39.30
2022-08-11T13:13:52.086Z,38.30
2022-08-11T13:15:49.880Z,38.70
2022-08-11T13:17:54.813Z,38.80
2022-08-11T13:20:00.638Z,38.70
2022-08-11T13:22:07.351Z,38.70
2022-08-11T13:24:09.677Z,39.10
2022-08-11T13:26:12.016Z,38.00
2022-08-11T13:28:14.386Z,37.80
2022-08-11T13:30:40.317Z,37.90
2022-08-11T13:32:48.021Z,37.90
2022-08-11T13:34:50.031Z,39.10
2022-08-11T13:36:54.275Z,39.60
2022-08-11T13:38:58.479Z,39.70
2022-08-11T13:41:00.891Z,39.30
2022-08-11T13:43:03.202Z,38.80
2022-08-11T13:45:07.486Z,38.10
2022-08-11T13:47:13.138Z,37.30
2022-08-11T13:49:17.400Z,36.90
2022-08-11T13:51:36.669Z,37.80
2022-08-11T13:53:39.077Z,38.50
2022-08-11T13:55:51.445Z,38.30
2022-08-11T13:58:08.234Z,36.40
2022-08-11T14:00:26.894Z,37.00
2022-08-11T14:02:31.861Z,36.90
2022-08-11T14:04:51.333Z,36.50
2022-08-11T14:06:55.219Z,35.60
2022-08-11T14:08:58.186Z,35.40
2022-08-11T14:12:22.704Z,34.40
2022-08-11T14:13:48.315Z,34.60
2022-08-11T14:15:52.293Z,34.80
2022-08-11T14:18:06.452Z,34.70
2022-08-11T14:20:38.187Z,34.90
2022-08-11T14:22:33.669Z,34.00
2022-08-11T14:24:41.259Z,32.90
2022-08-11T14:26:44.271Z,33.40
2022-08-11T14:28:48.015Z,33.90
2022-08-11T14:31:00.506Z,34.30
2022-08-11T14:33:04.963Z,34.40
2022-08-11T14:35:25.329Z,33.90
2022-08-11T14:37:29.106Z,34.10
2022-08-11T14:39:57.185Z,34.30
2022-08-11T14:42:25.869Z,34.70
2022-08-11T14:44:47.478Z,35.10
2022-08-11T14:47:05.671Z,35.20
2022-08-11T14:49:29.188Z,35.00
2022-08-11T14:51:31.646Z,35.20
2022-08-11T14:53:33.536Z,35.30
2022-08-11T14:56:02.959Z,34.90
2022-08-11T14:58:08.480Z,35.10
2022-08-11T15:00:15.747Z,35.50
2022-08-11T15:02:37.804Z,35.60
2022-08-11T15:04:40.122Z,35.40
2022-08-11T15:06:43.013Z,35.90
2022-08-11T15:08:57.163Z,37.40
2022-08-11T15:10:59.088Z,37.60
2022-08-11T15:13:01.196Z,37.90
2022-08-11T15:15:25.710Z,39.10
2022-08-11T15:17:39.381Z,40.20
2022-08-11T15:20:04.703Z,40.30
2022-08-11T15:22:45.067Z,39.60
2022-08-11T15:24:47.020Z,40.10
2022-08-11T15:27:09.374Z,39.60
2022-08-11T15:29:32.582Z,40.60
2022-08-11T15:31:56.094Z,40.50
2022-08-11T15:34:23.549Z,39.10
2022-08-11T15:36:45.948Z,40.00
2022-08-11T15:39:22.297Z,40.40
2022-08-11T15:41:58.654Z,39.60
2022-08-11T15:44:44.450Z,39.80
2022-08-11T15:46:52.497Z,39.80
2022-08-11T15:49:25.580Z,40.90
2022-08-11T15:52:02.212Z,41.00
2022-08-11T15:54:11.691Z,41.00
2022-08-11T15:56:16.829Z,41.10
2022-08-11T15:58:42.068Z,40.60
2022-08-11T16:01:08.849Z,41.20
2022-08-11T16:04:06.502Z,41.30
2022-08-11T16:05:55.493Z,41.00
2022-08-11T16:07:59.781Z,40.10
2022-08-11T16:10:09.562Z,39.80
2022-08-11T16:12:17.426Z,39.30
2022-08-11T16:14:40.129Z,39.50
2022-08-11T16:16:42.904Z,38.10
2022-08-11T16:18:57.682Z,38.00
2022-08-11T16:21:11.717Z,38.30
2022-08-11T16:23:34.435Z,37.00
2022-08-11T16:27:03.406Z,36.10
2022-08-11T16:28:06.507Z,36.10
2022-08-11T16:30:10.426Z,35.00
2022-08-11T16:32:21.701Z,34.80
2022-08-11T16:34:44.156Z,34.80
2022-08-11T16:37:04.791Z,34.60
2022-08-11T16:39:09.012Z,34.10
2022-08-11T16:41:14.071Z,33.40
2022-08-11T16:43:37.028Z,33.30
2022-08-11T16:45:59.560Z,33.20
2022-08-11T16:48:36.244Z,33.30
2022-08-11T16:50:29.820Z,33.30
2022-08-11T16:52:31.593Z,33.10
2022-08-11T16:54:35.015Z,33.10
2022-08-11T16:56:43.329Z,32.80
2022-08-11T16:59:16.299Z,32.90
2022-08-11T17:01:28.565Z,33.00
2022-08-11T17:03:51.224Z,33.20
2022-08-11T17:06:20.895Z,33.10
2022-08-11T17:08:57.258Z,32.80
2022-08-11T17:11:23.438Z,32.80
2022-08-11T17:13:42.439Z,32.60
2022-08-11T17:16:08.285Z,32.20
2022-08-11T17:18:37.874Z,31.90
2022-08-11T17:20:45.824Z,31.30
2022-08-11T17:23:08.748Z,30.80
2022-08-11T17:25:17.320Z,30.60
2022-08-11T17:27:21.241Z,30.40
2022-08-11T17:29:54.955Z,30.20
2022-08-11T17:32:28.005Z,30.10
2022-08-11T17:34:48.851Z,29.90
2022-08-11T17:36:53.455Z,29.70
2022-08-11T17:38:55.423Z,29.70
2022-08-11T17:41:23.587Z,29.50
2022-08-11T17:46:22.230Z,29.30
2022-08-11T17:50:56.452Z,29.10
2022-08-11T17:55:54.753Z,28.90
2022-08-11T17:58:16.846Z,28.80
2022-08-11T18:00:18.945Z,28.60
2022-08-11T18:02:49.851Z,28.40
2022-08-11T18:04:53.233Z,28.30
2022-08-11T18:06:55.783Z,28.10
2022-08-11T18:09:17.229Z,28.00
2022-08-11T18:12:06.810Z,27.90
2022-08-11T18:14:22.560Z,27.80
2022-08-11T18:16:42.992Z,27.60
2022-08-11T18:19:04.207Z,27.40
2022-08-11T18:21:29.227Z,27.20
2022-08-11T18:23:52.165Z,27.10
2022-08-11T18:26:17.255Z,26.90
2022-08-11T18:31:21.695Z,26.70
2022-08-11T18:34:06.421Z,26.50
2022-08-11T18:36:32.122Z,26.40
2022-08-11T18:38:52.384Z,26.20
2022-08-11T18:41:18.171Z,26.00
2022-08-11T18:43:44.552Z,25.90
2022-08-11T18:46:11.051Z,25.80
2022-08-11T18:51:30.865Z,25.50
2022-08-11T18:54:00.738Z,25.30
2022-08-11T18:56:21.859Z,25.10
2022-08-11T18:58:48.259Z,25.00
2022-08-11T19:03:49.280Z,24.90
2022-08-11T19:06:39.236Z,24.80
2022-08-11T19:14:34.678Z,24.50
2022-08-11T19:16:56.844Z,24.30
2022-08-11T19:19:18.295Z,24.20
2022-08-11T19:24:26.465Z,24.00
2022-08-11T19:26:48.345Z,23.90
2022-08-11T19:30:07.955Z,23.70
2022-08-11T19:31:57.523Z,23.70
2022-08-11T19:34:19.555Z,23.60
2022-08-11T19:36:42.766Z,23.50
2022-08-11T19:39:05.279Z,23.40
2022-08-11T19:41:52.336Z,23.30
2022-08-11T19:44:07.948Z,23.40
2022-08-11T19:46:29.676Z,23.40
2022-08-11T19:49:13.044Z,23.40
2022-08-11T19:51:43.378Z,23.30
2022-08-11T19:54:07.666Z,23.30
2022-08-11T19:56:29.572Z,23.40
2022-08-11T20:01:25.187Z,23.20
2022-08-11T20:03:46.555Z,23.10
2022-08-11T20:06:08.130Z,23.00
2022-08-11T20:08:29.185Z,23.00
2022-08-11T20:10:51.928Z,23.00
2022-08-11T20:15:59.795Z,22.80
2022-08-11T20:18:22.042Z,22.80
2022-08-11T20:20:45.240Z,22.70
2022-08-11T20:23:12.437Z,22.60
2022-08-11T20:25:35.677Z,22.40
2022-08-11T20:28:09.469Z,22.40
2022-08-11T20:30:30.661Z,22.30
2022-08-11T20:32:52.947Z,22.30
2022-08-11T20:35:16.244Z,22.10
2022-08-11T20:37:37.619Z,22.00
2022-08-11T20:40:00.645Z,21.90
2022-08-11T20:42:23.643Z,22.00
2022-08-11T20:44:48.154Z,21.90
2022-08-11T20:47:12.959Z,21.90
2022-08-11T20:49:44.885Z,21.90
2022-08-11T20:52:12.272Z,21.90
2022-08-11T20:54:38.180Z,21.90
2022-08-11T20:57:04.961Z,21.80
2022-08-11T20:59:49.558Z,21.80
2022-08-11T21:02:18.163Z,21.70
2022-08-11T21:04:54.438Z,21.60
2022-08-11T21:07:23.590Z,21.60
2022-08-11T21:10:09.246Z,21.60
2022-08-11T21:14:55.873Z,21.50
2022-08-11T21:17:27.718Z,21.40
2022-08-11T21:19:59.893Z,21.50
2022-08-11T21:22:23.023Z,21.40
2022-08-11T21:24:48.901Z,21.40
2022-08-11T21:27:16.232Z,21.40
2022-08-11T21:29:44.327Z,21.50
2022-08-11T21:32:06.402Z,21.30
2022-08-11T21:34:28.965Z,21.20
2022-08-11T21:36:51.106Z,21.20
2022-08-11T21:39:12.335Z,21.20
2022-08-11T21:41:34.513Z,21.10
2022-08-11T21:43:59.767Z,21.00
2022-08-11T21:46:23.259Z,21.10
2022-08-11T21:48:47.367Z,21.10
2022-08-11T21:51:07.790Z,21.00
2022-08-11T21:53:28.899Z,20.90
2022-08-11T21:55:50.206Z,20.90
2022-08-11T21:58:12.131Z,20.70
2022-08-11T22:00:33.275Z,20.60
2022-08-11T22:02:54.726Z,20.50
2022-08-11T22:05:15.279Z,20.40
2022-08-11T22:07:39.540Z,20.30
2022-08-11T22:10:01.811Z,20.20
2022-08-11T22:12:45.197Z,20.20
2022-08-11T22:15:06.318Z,20.10
2022-08-11T22:17:26.597Z,20.10
2022-08-11T22:19:48.085Z,20.10
2022-08-11T22:22:09.205Z,20.10
2022-08-11T22:24:32.561Z,20.10
2022-08-11T22:26:54.547Z,20.00
2022-08-11T22:29:15.272Z,19.90
2022-08-11T22:31:36.360Z,19.90
2022-08-11T22:34:02.891Z,20.00
2022-08-11T22:36:36.208Z,19.90
2022-08-11T22:39:00.987Z,19.90
2022-08-11T22:41:21.517Z,19.90
2022-08-11T22:43:45.593Z,19.80
2022-08-11T22:46:06.108Z,19.90
2022-08-11T22:48:27.971Z,19.90
2022-08-11T22:50:49.730Z,20.00
2022-08-11T22:53:10.832Z,20.00
2022-08-11T22:55:32.338Z,20.00
2022-08-11T22:58:00.656Z,20.00
2022-08-11T23:00:23.467Z,19.90
2022-08-11T23:02:51.117Z,19.60
2022-08-11T23:05:15.141Z,19.50
2022-08-11T23:07:50.756Z,19.40
2022-08-11T23:10:12.587Z,19.30
2022-08-11T23:12:41.835Z,19.30
2022-08-11T23:15:08.952Z,19.20
2022-08-11T23:17:31.388Z,19.10
2022-08-11T23:20:00.340Z,19.10
2022-08-11T23:22:32.159Z,19.20
2022-08-11T23:25:17.792Z,19.20
2022-08-11T23:27:39.281Z,19.30
2022-08-11T23:30:03.656Z,19.30
2022-08-11T23:32:25.144Z,19.30
2022-08-11T23:35:04.112Z,19.20
2022-08-11T23:37:41.023Z,19.00
2022-08-11T23:40:01.399Z,18.90
2022-08-11T23:42:22.779Z,18.90
2022-08-11T23:44:44.766Z,18.90
2022-08-11T23:47:08.279Z,18.90
2022-08-11T23:49:29.351Z,18.80
2022-08-11T23:51:54.859Z,18.70
2022-08-11T23:54:16.543Z,18.70
2022-08-11T23:56:37.585Z,18.70
2022-08-11T23:58:58.141Z,18.60
